sensor_id;sensor_type;location;lat;lon;timestamp;pressure;altitude;pressure_sealevel;temperature;humidity
34742;BME280;20968;42.696;23.360;2023-04-16T00:00:18;94730.88;;;15.04;54.06
34742;BME280;20968;42.696;23.360;2023-04-16T00:02:43;94719.78;;;15.04;54.08
34742;BME280;20968;42.696;23.360;2023-04-16T00:05:08;94719.84;;;14.98;53.80
34742;BME280;20968;42.696;23.360;2023-04-16T00:07:34;94717.25;;;15.06;53.40
34742;BME280;20968;42.696;23.360;2023-04-16T00:10:01;94716.00;;;15.07;52.79
34742;BME280;20968;42.696;23.360;2023-04-16T00:18:33;94720.31;;;15.02;53.23
34742;BME280;20968;42.696;23.360;2023-04-16T00:20:58;94716.53;;;15.00;53.46
34742;BME280;20968;42.696;23.360;2023-04-16T00:23:24;94714.81;;;14.97;53.34
34742;BME280;20968;42.696;23.360;2023-04-16T00:25:50;94712.84;;;14.92;53.41
34742;BME280;20968;42.696;23.360;2023-04-16T00:28:17;94716.66;;;14.89;52.91
34742;BME280;20968;42.696;23.360;2023-04-16T00:30:44;94725.50;;;14.87;53.46
34742;BME280;20968;42.696;23.360;2023-04-16T00:33:09;94718.19;;;14.84;53.49
34742;BME280;20968;42.696;23.360;2023-04-16T00:35:35;94720.72;;;14.82;53.73
34742;BME280;20968;42.696;23.360;2023-04-16T00:38:00;94718.72;;;14.83;53.16
34742;BME280;20968;42.696;23.360;2023-04-16T00:40:26;94714.72;;;14.78;52.80
34742;BME280;20968;42.696;23.360;2023-04-16T00:42:52;94712.25;;;14.75;53.19
34742;BME280;20968;42.696;23.360;2023-04-16T00:45:18;94712.28;;;14.70;52.91
34742;BME280;20968;42.696;23.360;2023-04-16T00:47:43;94714.56;;;14.66;53.08
34742;BME280;20968;42.696;23.360;2023-04-16T00:50:09;94719.66;;;14.62;53.29
34742;BME280;20968;42.696;23.360;2023-04-16T00:52:35;94708.31;;;14.60;52.98
34742;BME280;20968;42.696;23.360;2023-04-16T00:55:00;94709.81;;;14.61;52.71
34742;BME280;20968;42.696;23.360;2023-04-16T00:57:27;94710.13;;;14.52;53.49
34742;BME280;20968;42.696;23.360;2023-04-16T00:59:52;94718.06;;;14.37;53.84
34742;BME280;20968;42.696;23.360;2023-04-16T01:02:20;94717.09;;;14.29;54.08
34742;BME280;20968;42.696;23.360;2023-04-16T01:04:45;94714.59;;;14.25;54.12
34742;BME280;20968;42.696;23.360;2023-04-16T01:07:10;94715.41;;;14.20;54.36
34742;BME280;20968;42.696;23.360;2023-04-16T01:09:36;94708.09;;;14.17;54.52
34742;BME280;20968;42.696;23.360;2023-04-16T01:12:01;94712.66;;;14.15;54.43
34742;BME280;20968;42.696;23.360;2023-04-16T01:14:27;94712.66;;;14.15;54.88
34742;BME280;20968;42.696;23.360;2023-04-16T01:16:52;94713.41;;;14.15;54.50
34742;BME280;20968;42.696;23.360;2023-04-16T01:19:18;94712.94;;;14.11;55.22
34742;BME280;20968;42.696;23.360;2023-04-16T01:21:43;94707.16;;;14.04;54.70
34742;BME280;20968;42.696;23.360;2023-04-16T01:24:08;94703.09;;;14.05;53.26
34742;BME280;20968;42.696;23.360;2023-04-16T01:26:33;94702.38;;;14.04;52.27
34742;BME280;20968;42.696;23.360;2023-04-16T01:28:59;94711.47;;;13.99;52.43
34742;BME280;20968;42.696;23.360;2023-04-16T01:31:24;94707.94;;;13.99;52.07
34742;BME280;20968;42.696;23.360;2023-04-16T01:33:49;94701.91;;;14.00;51.49
34742;BME280;20968;42.696;23.360;2023-04-16T01:36:15;94705.66;;;14.03;51.79
34742;BME280;20968;42.696;23.360;2023-04-16T01:38:40;94699.13;;;14.00;50.96
34742;BME280;20968;42.696;23.360;2023-04-16T01:41:06;94703.19;;;13.94;51.30
34742;BME280;20968;42.696;23.360;2023-04-16T01:43:31;94695.88;;;13.91;50.92
34742;BME280;20968;42.696;23.360;2023-04-16T01:46:04;94698.38;;;13.95;50.74
34742;BME280;20968;42.696;23.360;2023-04-16T01:48:35;94700.88;;;13.98;51.02
34742;BME280;20968;42.696;23.360;2023-04-16T01:51:00;94697.38;;;13.98;51.05
34742;BME280;20968;42.696;23.360;2023-04-16T01:53:25;94698.38;;;13.95;50.81
34742;BME280;20968;42.696;23.360;2023-04-16T01:55:51;94698.16;;;13.93;50.87
34742;BME280;20968;42.696;23.360;2023-04-16T01:58:16;94697.19;;;13.85;49.60
34742;BME280;20968;42.696;23.360;2023-04-16T02:00:41;94692.44;;;13.80;50.22
34742;BME280;20968;42.696;23.360;2023-04-16T02:03:06;94698.72;;;13.80;49.58
34742;BME280;20968;42.696;23.360;2023-04-16T02:05:32;94693.69;;;13.79;49.99
34742;BME280;20968;42.696;23.360;2023-04-16T02:07:57;94692.69;;;13.76;50.07
34742;BME280;20968;42.696;23.360;2023-04-16T02:10:22;94694.75;;;13.70;49.82
34742;BME280;20968;42.696;23.360;2023-04-16T02:12:48;94692.47;;;13.74;51.30
34742;BME280;20968;42.696;23.360;2023-04-16T02:15:13;94688.66;;;13.77;51.51
34742;BME280;20968;42.696;23.360;2023-04-16T02:17:39;94692.22;;;13.72;51.80
34742;BME280;20968;42.696;23.360;2023-04-16T02:20:05;94690.91;;;13.79;51.61
34742;BME280;20968;42.696;23.360;2023-04-16T02:22:32;94685.91;;;13.77;52.02
34742;BME280;20968;42.696;23.360;2023-04-16T02:24:57;94685.91;;;13.77;52.04
34742;BME280;20968;42.696;23.360;2023-04-16T02:27:22;94685.66;;;13.75;52.21
34742;BME280;20968;42.696;23.360;2023-04-16T02:29:48;94684.63;;;13.78;52.86
34742;BME280;20968;42.696;23.360;2023-04-16T02:32:13;94684.16;;;13.74;52.79
34742;BME280;20968;42.696;23.360;2023-04-16T02:34:38;94682.41;;;13.71;53.28
34742;BME280;20968;42.696;23.360;2023-04-16T02:37:04;94681.16;;;13.67;53.09
34742;BME280;20968;42.696;23.360;2023-04-16T02:39:30;94679.66;;;13.66;53.36
34742;BME280;20968;42.696;23.360;2023-04-16T02:41:56;94682.44;;;13.66;54.04
34742;BME280;20968;42.696;23.360;2023-04-16T02:44:23;94680.91;;;13.65;53.27
34742;BME280;20968;42.696;23.360;2023-04-16T02:46:48;94677.16;;;13.62;54.25
34742;BME280;20968;42.696;23.360;2023-04-16T02:49:13;94671.38;;;13.66;54.14
34742;BME280;20968;42.696;23.360;2023-04-16T02:51:39;94667.84;;;13.65;54.50
34742;BME280;20968;42.696;23.360;2023-04-16T02:54:04;94670.91;;;13.62;53.30
34742;BME280;20968;42.696;23.360;2023-04-16T02:56:30;94667.34;;;13.61;53.57
34742;BME280;20968;42.696;23.360;2023-04-16T02:58:55;94666.63;;;13.61;54.25
34742;BME280;20968;42.696;23.360;2023-04-16T03:01:20;94667.88;;;13.60;54.52
34742;BME280;20968;42.696;23.360;2023-04-16T03:03:46;94669.88;;;13.59;54.20
34742;BME280;20968;42.696;23.360;2023-04-16T03:06:11;94665.91;;;13.55;54.36
34742;BME280;20968;42.696;23.360;2023-04-16T03:08:36;94661.38;;;13.52;53.03
34742;BME280;20968;42.696;23.360;2023-04-16T03:11:02;94669.16;;;13.53;53.00
34742;BME280;20968;42.696;23.360;2023-04-16T03:13:27;94674.94;;;13.50;53.72
34742;BME280;20968;42.696;23.360;2023-04-16T03:15:53;94674.22;;;13.49;54.17
34742;BME280;20968;42.696;23.360;2023-04-16T03:18:18;94680.47;;;13.50;54.11
34742;BME280;20968;42.696;23.360;2023-04-16T03:20:43;94678.50;;;13.50;53.02
34742;BME280;20968;42.696;23.360;2023-04-16T03:23:09;94682.50;;;13.49;53.76
34742;BME280;20968;42.696;23.360;2023-04-16T03:25:34;94678.97;;;13.49;53.44
34742;BME280;20968;42.696;23.360;2023-04-16T03:28:00;94679.25;;;13.45;53.95
34742;BME280;20968;42.696;23.360;2023-04-16T03:30:27;94678.50;;;13.45;53.26
34742;BME280;20968;42.696;23.360;2023-04-16T03:32:52;94675.22;;;13.46;53.70
34742;BME280;20968;42.696;23.360;2023-04-16T03:35:18;94689.31;;;13.48;53.56
34742;BME280;20968;42.696;23.360;2023-04-16T03:37:43;94682.78;;;13.40;53.61
34742;BME280;20968;42.696;23.360;2023-04-16T03:40:08;94691.34;;;13.42;54.03
34742;BME280;20968;42.696;23.360;2023-04-16T03:42:35;94689.56;;;13.45;53.83
34742;BME280;20968;42.696;23.360;2023-04-16T03:45:01;94692.34;;;13.45;53.62
34742;BME280;20968;42.696;23.360;2023-04-16T03:47:27;94688.53;;;13.48;53.04
34742;BME280;20968;42.696;23.360;2023-04-16T03:49:53;94687.28;;;13.49;52.48
34742;BME280;20968;42.696;23.360;2023-04-16T03:52:19;94687.31;;;13.43;51.60
34742;BME280;20968;42.696;23.360;2023-04-16T03:54:45;94690.84;;;13.38;51.66
34742;BME280;20968;42.696;23.360;2023-04-16T03:57:10;94692.34;;;13.34;50.59
34742;BME280;20968;42.696;23.360;2023-04-16T03:59:35;94697.41;;;13.24;50.36
34742;BME280;20968;42.696;23.360;2023-04-16T04:02:00;94699.19;;;13.11;50.75
34742;BME280;20968;42.696;23.360;2023-04-16T04:04:27;94697.22;;;13.06;50.46
34742;BME280;20968;42.696;23.360;2023-04-16T04:06:53;94696.69;;;13.08;51.56
34742;BME280;20968;42.696;23.360;2023-04-16T04:09:20;94699.47;;;13.13;51.05
34742;BME280;20968;42.696;23.360;2023-04-16T04:11:46;94705.25;;;13.15;51.18
34742;BME280;20968;42.696;23.360;2023-04-16T04:14:11;94710.25;;;13.17;50.61
34742;BME280;20968;42.696;23.360;2023-04-16T04:16:36;94709.25;;;13.20;50.08
34742;BME280;20968;42.696;23.360;2023-04-16T04:19:03;94709.25;;;13.20;50.37
34742;BME280;20968;42.696;23.360;2023-04-16T04:21:28;94715.78;;;13.22;50.08
34742;BME280;20968;42.696;23.360;2023-04-16T04:23:54;94713.50;;;13.31;51.17
34742;BME280;20968;42.696;23.360;2023-04-16T04:26:19;94713.22;;;13.35;49.65
34742;BME280;20968;42.696;23.360;2023-04-16T04:28:45;94722.78;;;13.39;49.14
34742;BME280;20968;42.696;23.360;2023-04-16T04:31:11;94717.25;;;13.34;49.35
34742;BME280;20968;42.696;23.360;2023-04-16T04:33:37;94720.53;;;13.27;48.59
34742;BME280;20968;42.696;23.360;2023-04-16T04:36:04;94724.53;;;13.31;49.67
34742;BME280;20968;42.696;23.360;2023-04-16T04:38:29;94718.50;;;13.33;49.85
34742;BME280;20968;42.696;23.360;2023-04-16T04:40:55;94725.53;;;13.39;50.08
34742;BME280;20968;42.696;23.360;2023-04-16T04:43:20;94733.81;;;13.45;49.64
34742;BME280;20968;42.696;23.360;2023-04-16T04:45:46;94735.06;;;13.49;49.25
34742;BME280;20968;42.696;23.360;2023-04-16T04:48:14;94729.78;;;13.51;50.05
34742;BME280;20968;42.696;23.360;2023-04-16T04:50:40;94730.50;;;13.57;50.65
34742;BME280;20968;42.696;23.360;2023-04-16T04:53:06;94732.50;;;13.62;50.30
34742;BME280;20968;42.696;23.360;2023-04-16T04:55:37;94735.78;;;13.61;50.78
34742;BME280;20968;42.696;23.360;2023-04-16T04:58:03;94728.22;;;13.61;50.87
34742;BME280;20968;42.696;23.360;2023-04-16T05:00:29;94740.78;;;13.68;50.33
34742;BME280;20968;42.696;23.360;2023-04-16T05:02:55;94733.03;;;13.61;50.10
34742;BME280;20968;42.696;23.360;2023-04-16T05:05:20;94735.25;;;13.68;49.84
34742;BME280;20968;42.696;23.360;2023-04-16T05:07:45;94741.78;;;13.70;50.54
34742;BME280;20968;42.696;23.360;2023-04-16T05:10:11;94738.00;;;13.73;50.54
34742;BME280;20968;42.696;23.360;2023-04-16T05:12:36;94735.47;;;13.75;50.40
34742;BME280;20968;42.696;23.360;2023-04-16T05:15:01;94729.91;;;13.81;49.67
34742;BME280;20968;42.696;23.360;2023-04-16T05:17:27;94732.41;;;13.84;50.17
34742;BME280;20968;42.696;23.360;2023-04-16T05:19:52;94727.38;;;13.88;49.71
34742;BME280;20968;42.696;23.360;2023-04-16T05:22:17;94723.06;;;13.93;50.45
34742;BME280;20968;42.696;23.360;2023-04-16T05:24:43;94727.56;;;13.96;49.74
34742;BME280;20968;42.696;23.360;2023-04-16T05:27:08;94730.59;;;13.98;49.35
34742;BME280;20968;42.696;23.360;2023-04-16T05:29:33;94729.84;;;13.97;49.21
34742;BME280;20968;42.696;23.360;2023-04-16T05:31:59;94722.28;;;14.03;48.77
34742;BME280;20968;42.696;23.360;2023-04-16T05:34:24;94735.56;;;14.10;49.49
34742;BME280;20968;42.696;23.360;2023-04-16T05:36:50;94738.63;;;14.12;48.84
34742;BME280;20968;42.696;23.360;2023-04-16T05:39:15;94736.56;;;14.18;49.27
34742;BME280;20968;42.696;23.360;2023-04-16T05:41:40;94734.50;;;14.24;49.29
34742;BME280;20968;42.696;23.360;2023-04-16T05:44:06;94734.47;;;14.29;49.60
34742;BME280;20968;42.696;23.360;2023-04-16T05:46:31;94732.44;;;14.30;49.06
34742;BME280;20968;42.696;23.360;2023-04-16T05:48:56;94731.16;;;14.36;47.76
34742;BME280;20968;42.696;23.360;2023-04-16T05:51:23;94732.69;;;14.32;47.92
34742;BME280;20968;42.696;23.360;2023-04-16T05:53:50;94727.97;;;14.21;47.90
34742;BME280;20968;42.696;23.360;2023-04-16T05:56:15;94734.22;;;14.27;48.45
34742;BME280;20968;42.696;23.360;2023-04-16T05:58:40;94744.28;;;14.30;48.63
34742;BME280;20968;42.696;23.360;2023-04-16T06:01:05;94735.72;;;14.34;48.26
34742;BME280;20968;42.696;23.360;2023-04-16T06:03:31;94740.00;;;14.35;48.59
34742;BME280;20968;42.696;23.360;2023-04-16T06:05:56;94733.69;;;14.34;47.82
34742;BME280;20968;42.696;23.360;2023-04-16T06:08:22;94733.66;;;14.40;48.22
34742;BME280;20968;42.696;23.360;2023-04-16T06:10:48;94730.84;;;14.45;48.55
34742;BME280;20968;42.696;23.360;2023-04-16T06:13:13;94724.00;;;14.52;47.83
34742;BME280;20968;42.696;23.360;2023-04-16T06:15:38;94730.78;;;14.51;47.72
34742;BME280;20968;42.696;23.360;2023-04-16T06:18:05;94737.53;;;14.61;48.42
34742;BME280;20968;42.696;23.360;2023-04-16T06:20:30;94737.22;;;14.70;47.84
34742;BME280;20968;42.696;23.360;2023-04-16T06:22:55;94732.09;;;14.79;47.64
34742;BME280;20968;42.696;23.360;2023-04-16T06:25:21;94726.38;;;14.72;48.16
34742;BME280;20968;42.696;23.360;2023-04-16T06:27:46;94726.44;;;14.61;48.26
34742;BME280;20968;42.696;23.360;2023-04-16T06:30:12;94725.16;;;14.67;48.42
34742;BME280;20968;42.696;23.360;2023-04-16T06:32:37;94727.81;;;14.78;49.48
34742;BME280;20968;42.696;23.360;2023-04-16T06:35:03;94724.97;;;14.89;49.03
34742;BME280;20968;42.696;23.360;2023-04-16T06:37:28;94720.97;;;14.84;48.45
34742;BME280;20968;42.696;23.360;2023-04-16T06:39:53;94722.16;;;14.94;48.85
34742;BME280;20968;42.696;23.360;2023-04-16T06:42:19;94728.03;;;15.15;49.00
34742;BME280;20968;42.696;23.360;2023-04-16T06:44:45;94727.94;;;15.26;49.37
34742;BME280;20968;42.696;23.360;2023-04-16T06:47:10;94723.72;;;15.43;49.61
34742;BME280;20968;42.696;23.360;2023-04-16T06:49:36;94718.34;;;15.51;50.63
34742;BME280;20968;42.696;23.360;2023-04-16T06:52:02;94726.47;;;15.67;50.21
34742;BME280;20968;42.696;23.360;2023-04-16T06:54:28;94719.72;;;15.39;50.05
34742;BME280;20968;42.696;23.360;2023-04-16T06:57:08;94719.72;;;15.39;51.01
34742;BME280;20968;42.696;23.360;2023-04-16T07:03:16;94724.81;;;15.58;50.29
34742;BME280;20968;42.696;23.360;2023-04-16T07:09:23;94713.44;;;15.80;51.11
34742;BME280;20968;42.696;23.360;2023-04-16T07:11:57;94713.28;;;15.73;50.63
34742;BME280;20968;42.696;23.360;2023-04-16T07:14:23;94711.13;;;15.84;51.06
34742;BME280;20968;42.696;23.360;2023-04-16T07:16:49;94720.66;;;15.89;51.60
34742;BME280;20968;42.696;23.360;2023-04-16T07:19:14;94725.19;;;15.92;50.90
34742;BME280;20968;42.696;23.360;2023-04-16T07:21:40;94723.22;;;15.87;50.25
34742;BME280;20968;42.696;23.360;2023-04-16T07:24:08;94726.56;;;15.80;51.03
34742;BME280;20968;42.696;23.360;2023-04-16T07:26:33;94723.84;;;15.98;51.76
34742;BME280;20968;42.696;23.360;2023-04-16T07:28:58;94720.47;;;16.05;51.32
34742;BME280;20968;42.696;23.360;2023-04-16T07:31:34;94718.66;;;16.08;50.43
34742;BME280;20968;42.696;23.360;2023-04-16T07:34:00;94725.78;;;16.22;50.38
34742;BME280;20968;42.696;23.360;2023-04-16T07:36:25;94714.94;;;16.42;51.05
34742;BME280;20968;42.696;23.360;2023-04-16T07:38:53;94707.84;;;16.59;50.33
34742;BME280;20968;42.696;23.360;2023-04-16T07:41:18;94708.59;;;16.41;49.76
34742;BME280;20968;42.696;23.360;2023-04-16T07:43:43;94717.72;;;16.42;50.08
34742;BME280;20968;42.696;23.360;2023-04-16T07:46:09;94713.34;;;16.46;49.67
34742;BME280;20968;42.696;23.360;2023-04-16T07:48:34;94721.44;;;16.63;49.77
34742;BME280;20968;42.696;23.360;2023-04-16T07:50:59;94717.34;;;16.82;50.18
34742;BME280;20968;42.696;23.360;2023-04-16T07:53:25;94718.03;;;17.01;50.29
34742;BME280;20968;42.696;23.360;2023-04-16T07:55:50;94718.47;;;17.05;48.32
34742;BME280;20968;42.696;23.360;2023-04-16T07:58:15;94714.97;;;17.17;48.26
34742;BME280;20968;42.696;23.360;2023-04-16T08:00:41;94711.13;;;17.20;49.29
34742;BME280;20968;42.696;23.360;2023-04-16T08:03:06;94716.75;;;17.02;48.38
34742;BME280;20968;42.696;23.360;2023-04-16T08:05:31;94713.53;;;16.98;49.06
34742;BME280;20968;42.696;23.360;2023-04-16T08:07:56;94719.56;;;17.15;49.23
34742;BME280;20968;42.696;23.360;2023-04-16T08:10:22;94709.38;;;17.36;48.49
34742;BME280;20968;42.696;23.360;2023-04-16T08:12:48;94706.28;;;17.65;48.36
34742;BME280;20968;42.696;23.360;2023-04-16T08:15:13;94702.72;;;17.91;48.65
34742;BME280;20968;42.696;23.360;2023-04-16T08:17:38;94703.88;;;18.21;48.25
34742;BME280;20968;42.696;23.360;2023-04-16T08:20:04;94706.84;;;18.49;46.15
34742;BME280;20968;42.696;23.360;2023-04-16T08:22:29;94699.16;;;18.62;45.66
34742;BME280;20968;42.696;23.360;2023-04-16T08:24:56;94705.31;;;18.81;44.08
34742;BME280;20968;42.696;23.360;2023-04-16T08:27:22;94698.75;;;18.99;43.79
34742;BME280;20968;42.696;23.360;2023-04-16T08:29:48;94697.00;;;19.09;43.61
34742;BME280;20968;42.696;23.360;2023-04-16T08:32:13;94697.38;;;19.26;43.13
34742;BME280;20968;42.696;23.360;2023-04-16T08:34:38;94691.53;;;19.16;44.03
34742;BME280;20968;42.696;23.360;2023-04-16T08:37:05;94687.81;;;19.21;43.16
34742;BME280;20968;42.696;23.360;2023-04-16T08:39:31;94686.69;;;19.45;43.02
34742;BME280;20968;42.696;23.360;2023-04-16T08:41:57;94685.47;;;19.53;43.38
34742;BME280;20968;42.696;23.360;2023-04-16T08:44:26;94685.59;;;19.75;41.90
34742;BME280;20968;42.696;23.360;2023-04-16T08:46:53;94683.78;;;19.78;42.50
34742;BME280;20968;42.696;23.360;2023-04-16T08:49:23;94682.19;;;19.97;43.02
34742;BME280;20968;42.696;23.360;2023-04-16T08:51:49;94682.78;;;20.38;41.19
34742;BME280;20968;42.696;23.360;2023-04-16T08:54:16;94680.59;;;20.67;39.81
34742;BME280;20968;42.696;23.360;2023-04-16T08:56:45;94675.06;;;20.82;39.36
34742;BME280;20968;42.696;23.360;2023-04-16T08:59:13;94676.81;;;20.42;38.53
34742;BME280;20968;42.696;23.360;2023-04-16T09:01:41;94674.25;;;20.09;39.75
34742;BME280;20968;42.696;23.360;2023-04-16T09:04:06;94675.59;;;20.15;39.87
34742;BME280;20968;42.696;23.360;2023-04-16T09:06:34;94671.34;;;20.29;40.18
34742;BME280;20968;42.696;23.360;2023-04-16T09:09:03;94667.06;;;20.28;41.42
34742;BME280;20968;42.696;23.360;2023-04-16T09:11:29;94675.06;;;20.24;40.67
34742;BME280;20968;42.696;23.360;2023-04-16T09:13:55;94668.19;;;20.33;39.72
34742;BME280;20968;42.696;23.360;2023-04-16T09:16:22;94666.94;;;19.98;39.34
34742;BME280;20968;42.696;23.360;2023-04-16T09:18:48;94665.69;;;20.07;40.91
34742;BME280;20968;42.696;23.360;2023-04-16T09:21:14;94665.22;;;20.38;41.40
34742;BME280;20968;42.696;23.360;2023-04-16T09:23:48;94658.41;;;20.61;39.07
34742;BME280;20968;42.696;23.360;2023-04-16T09:26:13;94660.81;;;20.50;38.49
34742;BME280;20968;42.696;23.360;2023-04-16T09:28:44;94665.63;;;20.49;38.46
34742;BME280;20968;42.696;23.360;2023-04-16T09:31:13;94663.44;;;20.63;38.88
34742;BME280;20968;42.696;23.360;2023-04-16T09:33:38;94661.41;;;20.71;40.34
34742;BME280;20968;42.696;23.360;2023-04-16T09:36:04;94662.06;;;20.99;37.97
34742;BME280;20968;42.696;23.360;2023-04-16T09:38:50;94652.16;;;21.20;37.19
34742;BME280;20968;42.696;23.360;2023-04-16T09:41:16;94660.19;;;21.31;37.34
34742;BME280;20968;42.696;23.360;2023-04-16T09:43:48;94654.78;;;21.33;37.33
34742;BME280;20968;42.696;23.360;2023-04-16T09:46:18;94651.41;;;21.35;38.35
34742;BME280;20968;42.696;23.360;2023-04-16T09:48:44;94651.94;;;21.41;38.49
34742;BME280;20968;42.696;23.360;2023-04-16T09:51:10;94647.28;;;21.51;37.26
34742;BME280;20968;42.696;23.360;2023-04-16T09:53:36;94646.53;;;21.58;36.80
34742;BME280;20968;42.696;23.360;2023-04-16T09:56:04;94639.59;;;21.74;37.67
34742;BME280;20968;42.696;23.360;2023-04-16T09:58:31;94639.06;;;21.68;38.44
34742;BME280;20968;42.696;23.360;2023-04-16T10:01:00;94641.69;;;21.58;37.81
34742;BME280;20968;42.696;23.360;2023-04-16T10:03:31;94638.72;;;21.56;38.35
34742;BME280;20968;42.696;23.360;2023-04-16T10:06:15;94636.63;;;21.34;38.07
34742;BME280;20968;42.696;23.360;2023-04-16T10:08:43;94630.47;;;21.28;37.47
34742;BME280;20968;42.696;23.360;2023-04-16T10:11:10;94631.59;;;21.18;38.50
34742;BME280;20968;42.696;23.360;2023-04-16T10:13:35;94625.66;;;21.14;37.49
34742;BME280;20968;42.696;23.360;2023-04-16T10:16:00;94626.75;;;21.11;38.04
34742;BME280;20968;42.696;23.360;2023-04-16T10:18:30;94624.69;;;21.12;38.85
34742;BME280;20968;42.696;23.360;2023-04-16T10:20:57;94614.97;;;20.98;38.22
34742;BME280;20968;42.696;23.360;2023-04-16T10:23:25;94617.78;;;20.83;37.48
34742;BME280;20968;42.696;23.360;2023-04-16T10:25:52;94615.75;;;20.98;37.92
34742;BME280;20968;42.696;23.360;2023-04-16T10:28:18;94614.44;;;21.07;38.23
34742;BME280;20968;42.696;23.360;2023-04-16T10:30:44;94611.63;;;21.07;38.19
34742;BME280;20968;42.696;23.360;2023-04-16T10:33:17;94611.06;;;21.15;36.63
34742;BME280;20968;42.696;23.360;2023-04-16T10:35:44;94611.81;;;21.23;36.57
34742;BME280;20968;42.696;23.360;2023-04-16T10:38:26;94608.25;;;21.30;36.80
34742;BME280;20968;42.696;23.360;2023-04-16T10:40:58;94611.78;;;21.38;36.17
34742;BME280;20968;42.696;23.360;2023-04-16T10:43:24;94605.97;;;21.74;36.86
34742;BME280;20968;42.696;23.360;2023-04-16T10:45:49;94607.13;;;22.10;35.71
34742;BME280;20968;42.696;23.360;2023-04-16T10:48:17;94607.41;;;22.36;35.29
34742;BME280;20968;42.696;23.360;2023-04-16T10:50:56;94606.06;;;22.76;34.58
34742;BME280;20968;42.696;23.360;2023-04-16T10:53:23;94609.34;;;23.14;33.39
34742;BME280;20968;42.696;23.360;2023-04-16T10:55:56;94605.84;;;23.06;31.37
34742;BME280;20968;42.696;23.360;2023-04-16T10:58:28;94597.72;;;22.86;33.08
34742;BME280;20968;42.696;23.360;2023-04-16T11:00:53;94599.97;;;22.87;33.48
34742;BME280;20968;42.696;23.360;2023-04-16T11:03:19;94596.88;;;23.25;33.31
34742;BME280;20968;42.696;23.360;2023-04-16T11:05:44;94590.63;;;23.51;34.44
34742;BME280;20968;42.696;23.360;2023-04-16T11:08:14;94592.91;;;23.11;33.11
34742;BME280;20968;42.696;23.360;2023-04-16T11:10:42;94588.88;;;23.21;34.39
34742;BME280;20968;42.696;23.360;2023-04-16T11:13:08;94580.88;;;23.10;34.09
34742;BME280;20968;42.696;23.360;2023-04-16T11:15:36;94586.28;;;22.91;35.25
34742;BME280;20968;42.696;23.360;2023-04-16T11:18:02;94573.16;;;22.70;34.86
34742;BME280;20968;42.696;23.360;2023-04-16T11:20:28;94578.06;;;22.62;35.28
34742;BME280;20968;42.696;23.360;2023-04-16T11:22:53;94571.28;;;22.40;35.68
34742;BME280;20968;42.696;23.360;2023-04-16T11:27:46;94569.53;;;22.13;35.63
34742;BME280;20968;42.696;23.360;2023-04-16T11:30:11;94561.81;;;21.82;35.20
34742;BME280;20968;42.696;23.360;2023-04-16T11:32:40;94561.59;;;21.87;35.58
34742;BME280;20968;42.696;23.360;2023-04-16T11:35:16;94558.09;;;21.79;36.17
34742;BME280;20968;42.696;23.360;2023-04-16T11:37:42;94560.56;;;21.68;35.71
34742;BME280;20968;42.696;23.360;2023-04-16T11:40:08;94546.94;;;21.49;35.48
34742;BME280;20968;42.696;23.360;2023-04-16T11:42:35;94546.03;;;21.54;36.30
34742;BME280;20968;42.696;23.360;2023-04-16T11:45:04;94540.06;;;21.35;36.19
34742;BME280;20968;42.696;23.360;2023-04-16T11:47:30;94538.41;;;21.32;36.27
34742;BME280;20968;42.696;23.360;2023-04-16T11:49:56;94537.09;;;21.26;36.87
34742;BME280;20968;42.696;23.360;2023-04-16T11:52:30;94536.41;;;21.11;36.40
34742;BME280;20968;42.696;23.360;2023-04-16T11:54:56;94537.50;;;21.08;36.35
34742;BME280;20968;42.696;23.360;2023-04-16T11:57:25;94537.50;;;21.08;36.69
34742;BME280;20968;42.696;23.360;2023-04-16T11:59:50;94527.78;;;21.23;35.97
34742;BME280;20968;42.696;23.360;2023-04-16T12:02:16;94527.03;;;21.15;36.25
34742;BME280;20968;42.696;23.360;2023-04-16T12:04:41;94514.91;;;21.13;36.68
34742;BME280;20968;42.696;23.360;2023-04-16T12:09:33;94512.03;;;21.35;36.29
34742;BME280;20968;42.696;23.360;2023-04-16T12:12:01;94504.94;;;21.42;36.17
34742;BME280;20968;42.696;23.360;2023-04-16T12:14:27;94498.72;;;21.58;36.00
34742;BME280;20968;42.696;23.360;2023-04-16T12:16:52;94497.22;;;21.57;35.42
34742;BME280;20968;42.696;23.360;2023-04-16T12:19:23;94493.34;;;21.45;35.84
34742;BME280;20968;42.696;23.360;2023-04-16T12:21:48;94494.81;;;21.46;36.78
34742;BME280;20968;42.696;23.360;2023-04-16T12:24:15;94485.28;;;21.57;37.16
34742;BME280;20968;42.696;23.360;2023-04-16T12:26:45;94482.06;;;21.68;35.77
34742;BME280;20968;42.696;23.360;2023-04-16T12:29:17;94490.25;;;21.73;35.00
34742;BME280;20968;42.696;23.360;2023-04-16T12:31:43;94481.50;;;21.69;35.65
34742;BME280;20968;42.696;23.360;2023-04-16T12:34:09;94480.25;;;21.48;35.66
34742;BME280;20968;42.696;23.360;2023-04-16T12:36:35;94471.13;;;21.40;36.46
34742;BME280;20968;42.696;23.360;2023-04-16T12:39:03;94478.59;;;21.37;36.56
34742;BME280;20968;42.696;23.360;2023-04-16T12:41:29;94470.25;;;21.30;36.88
34742;BME280;20968;42.696;23.360;2023-04-16T12:44:02;94467.25;;;21.20;36.81
34742;BME280;20968;42.696;23.360;2023-04-16T12:46:28;94471.16;;;21.25;37.25
34742;BME280;20968;42.696;23.360;2023-04-16T12:48:54;94470.09;;;21.06;36.58
34742;BME280;20968;42.696;23.360;2023-04-16T12:51:21;94472.75;;;20.96;37.53
34742;BME280;20968;42.696;23.360;2023-04-16T12:53:47;94467.38;;;20.83;38.95
34742;BME280;20968;42.696;23.360;2023-04-16T12:56:12;94471.81;;;20.71;39.95
34742;BME280;20968;42.696;23.360;2023-04-16T12:58:37;94468.28;;;20.56;39.02
34742;BME280;20968;42.696;23.360;2023-04-16T13:01:04;94460.84;;;20.43;38.75
34742;BME280;20968;42.696;23.360;2023-04-16T13:03:31;94464.75;;;20.18;39.42